sensor_id;sensor_type;location;lat;lon;timestamp;pressure;altitude;pressure_sealevel;temperature;humidity
12172;BME280;6149;52.418;13.668;2022-07-10T00:01:47;101568.53;;;14.35;75.72
12172;BME280;6149;52.418;13.668;2022-07-10T00:04:14;101570.25;;;14.36;76.28
12172;BME280;6149;52.418;13.668;2022-07-10T00:06:41;101565.25;;;14.30;75.23
12172;BME280;6149;52.418;13.668;2022-07-10T00:09:12;101576.81;;;14.29;76.01
12172;BME280;6149;52.418;13.668;2022-07-10T00:11:39;101576.03;;;14.27;75.16
12172;BME280;6149;52.418;13.668;2022-07-10T00:14:06;101575.41;;;14.22;75.68
12172;BME280;6149;52.418;13.668;2022-07-10T00:16:33;101569.25;;;14.22;75.32
12172;BME280;6149;52.418;13.668;2022-07-10T00:19:00;101561.41;;;14.19;76.38
12172;BME280;6149;52.418;13.668;2022-07-10T00:21:27;101570.41;;;14.16;77.64
12172;BME280;6149;52.418;13.668;2022-07-10T00:23:53;101564.25;;;14.16;77.33
12172;BME280;6149;52.418;13.668;2022-07-10T00:26:20;101562.91;;;14.24;76.52
12172;BME280;6149;52.418;13.668;2022-07-10T00:28:48;101561.41;;;14.19;77.14
12172;BME280;6149;52.418;13.668;2022-07-10T00:31:14;101560.56;;;14.18;76.96
12172;BME280;6149;52.418;13.668;2022-07-10T00:33:41;101552.50;;;14.20;77.00
12172;BME280;6149;52.418;13.668;2022-07-10T00:36:08;101556.47;;;14.28;76.82
12172;BME280;6149;52.418;13.668;2022-07-10T00:38:35;101553.97;;;14.25;76.55
12172;BME280;6149;52.418;13.668;2022-07-10T00:41:01;101557.66;;;14.23;75.84
12172;BME280;6149;52.418;13.668;2022-07-10T00:43:28;101543.25;;;14.27;75.96
12172;BME280;6149;52.418;13.668;2022-07-10T00:45:56;101546.06;;;14.24;75.75
12172;BME280;6149;52.418;13.668;2022-07-10T00:48:22;101539.81;;;14.25;75.44
12172;BME280;6149;52.418;13.668;2022-07-10T00:50:49;101548.72;;;14.24;76.49
12172;BME280;6149;52.418;13.668;2022-07-10T00:53:16;101546.16;;;14.22;76.59
12172;BME280;6149;52.418;13.668;2022-07-10T00:55:43;101539.03;;;14.23;76.22
12172;BME280;6149;52.418;13.668;2022-07-10T00:58:11;101538.63;;;14.30;75.70
12172;BME280;6149;52.418;13.668;2022-07-10T01:00:39;101529.88;;;14.28;75.91
12172;BME280;6149;52.418;13.668;2022-07-10T01:03:07;101525.31;;;14.30;76.29
12172;BME280;6149;52.418;13.668;2022-07-10T01:05:33;101531.44;;;14.32;76.46
12172;BME280;6149;52.418;13.668;2022-07-10T01:08:00;101532.97;;;14.36;76.20
12172;BME280;6149;52.418;13.668;2022-07-10T01:10:26;101533.94;;;14.35;75.45
12172;BME280;6149;52.418;13.668;2022-07-10T01:12:53;101535.19;;;14.28;76.80
12172;BME280;6149;52.418;13.668;2022-07-10T01:15:20;101536.06;;;14.29;77.08
12172;BME280;6149;52.418;13.668;2022-07-10T01:17:47;101529.78;;;14.30;76.33
12172;BME280;6149;52.418;13.668;2022-07-10T01:20:16;101526.88;;;14.34;77.15
12172;BME280;6149;52.418;13.668;2022-07-10T01:22:44;101526.03;;;14.34;77.08
12172;BME280;6149;52.418;13.668;2022-07-10T01:25:10;101520.78;;;14.32;76.89
12172;BME280;6149;52.418;13.668;2022-07-10T01:27:37;101525.25;;;14.32;77.28
12172;BME280;6149;52.418;13.668;2022-07-10T01:30:04;101519.22;;;14.28;76.40
12172;BME280;6149;52.418;13.668;2022-07-10T01:32:38;101513.66;;;14.33;75.66
12172;BME280;6149;52.418;13.668;2022-07-10T01:35:07;101513.91;;;14.28;76.40
12172;BME280;6149;52.418;13.668;2022-07-10T01:37:36;101511.16;;;14.30;77.42
12172;BME280;6149;52.418;13.668;2022-07-10T01:40:06;101508.44;;;14.31;77.23
12172;BME280;6149;52.418;13.668;2022-07-10T01:42:34;101517.34;;;14.30;77.32
12172;BME280;6149;52.418;13.668;2022-07-10T01:45:00;101500.44;;;14.31;77.28
12172;BME280;6149;52.418;13.668;2022-07-10T01:47:27;101509.38;;;14.30;77.52
12172;BME280;6149;52.418;13.668;2022-07-10T01:49:53;101518.75;;;14.37;76.75
12172;BME280;6149;52.418;13.668;2022-07-10T01:52:20;101506.22;;;14.39;76.03
12172;BME280;6149;52.418;13.668;2022-07-10T01:54:47;101505.06;;;14.28;77.34
12172;BME280;6149;52.418;13.668;2022-07-10T01:57:15;101510.47;;;14.26;76.95
12172;BME280;6149;52.418;13.668;2022-07-10T01:59:43;101510.47;;;14.26;77.90
12172;BME280;6149;52.418;13.668;2022-07-10T02:02:09;101517.34;;;14.30;77.33
12172;BME280;6149;52.418;13.668;2022-07-10T02:04:36;101510.63;;;14.23;77.86
12172;BME280;6149;52.418;13.668;2022-07-10T02:07:09;101516.13;;;14.20;78.17
12172;BME280;6149;52.418;13.668;2022-07-10T02:09:35;101518.44;;;14.26;77.42
12172;BME280;6149;52.418;13.668;2022-07-10T02:12:12;101514.31;;;14.21;77.84
12172;BME280;6149;52.418;13.668;2022-07-10T02:14:41;101515.25;;;14.20;77.92
12172;BME280;6149;52.418;13.668;2022-07-10T02:17:08;101509.31;;;14.15;78.16
12172;BME280;6149;52.418;13.668;2022-07-10T02:19:35;101511.19;;;14.13;78.36
12172;BME280;6149;52.418;13.668;2022-07-10T02:22:01;101507.59;;;14.14;78.28
12172;BME280;6149;52.418;13.668;2022-07-10T02:24:28;101512.91;;;14.14;78.36
12172;BME280;6149;52.418;13.668;2022-07-10T02:26:55;101509.41;;;14.13;79.14
12172;BME280;6149;52.418;13.668;2022-07-10T02:29:21;101499.91;;;14.09;78.64
12172;BME280;6149;52.418;13.668;2022-07-10T02:31:51;101501.69;;;14.09;79.31
12172;BME280;6149;52.418;13.668;2022-07-10T02:34:17;101493.78;;;14.07;79.17
12172;BME280;6149;52.418;13.668;2022-07-10T02:36:44;101505.03;;;14.12;79.15
12172;BME280;6149;52.418;13.668;2022-07-10T02:39:10;101495.00;;;14.17;78.39
12172;BME280;6149;52.418;13.668;2022-07-10T02:41:37;101499.22;;;14.21;77.64
12172;BME280;6149;52.418;13.668;2022-07-10T02:44:03;101495.78;;;14.19;77.78
12172;BME280;6149;52.418;13.668;2022-07-10T02:46:30;101497.91;;;14.13;77.46
12172;BME280;6149;52.418;13.668;2022-07-10T02:48:58;101490.97;;;14.10;78.15
12172;BME280;6149;52.418;13.668;2022-07-10T02:51:24;101491.06;;;14.09;78.68
12172;BME280;6149;52.418;13.668;2022-07-10T02:53:51;101485.03;;;14.05;79.35
12172;BME280;6149;52.418;13.668;2022-07-10T02:56:18;101487.78;;;14.03;79.63
12172;BME280;6149;52.418;13.668;2022-07-10T02:58:44;101492.25;;;14.03;79.24
12172;BME280;6149;52.418;13.668;2022-07-10T03:01:11;101496.78;;;14.01;79.81
12172;BME280;6149;52.418;13.668;2022-07-10T03:03:37;101485.34;;;13.99;80.44
12172;BME280;6149;52.418;13.668;2022-07-10T03:06:05;101488.19;;;13.96;80.62
12172;BME280;6149;52.418;13.668;2022-07-10T03:08:33;101490.06;;;13.94;81.27
12172;BME280;6149;52.418;13.668;2022-07-10T03:10:59;101486.53;;;13.93;81.26
12172;BME280;6149;52.418;13.668;2022-07-10T03:13:26;101500.06;;;13.89;81.85
12172;BME280;6149;52.418;13.668;2022-07-10T03:15:53;101493.56;;;13.94;81.37
12172;BME280;6149;52.418;13.668;2022-07-10T03:18:21;101486.63;;;13.92;81.23
12172;BME280;6149;52.418;13.668;2022-07-10T03:20:48;101486.84;;;13.87;80.99
12172;BME280;6149;52.418;13.668;2022-07-10T03:23:15;101489.44;;;13.89;82.08
12172;BME280;6149;52.418;13.668;2022-07-10T03:25:42;101487.72;;;13.88;81.55
12172;BME280;6149;52.418;13.668;2022-07-10T03:28:09;101483.66;;;13.81;82.10
12172;BME280;6149;52.418;13.668;2022-07-10T03:30:36;101480.75;;;13.85;81.84
12172;BME280;6149;52.418;13.668;2022-07-10T03:33:02;101481.63;;;13.86;81.13
12172;BME280;6149;52.418;13.668;2022-07-10T03:35:29;101481.84;;;13.81;81.75
12172;BME280;6149;52.418;13.668;2022-07-10T03:37:57;101482.09;;;13.77;82.00
12172;BME280;6149;52.418;13.668;2022-07-10T03:40:25;101479.44;;;13.77;81.67
12172;BME280;6149;52.418;13.668;2022-07-10T03:42:52;101473.19;;;13.78;81.60
12172;BME280;6149;52.418;13.668;2022-07-10T03:45:19;101472.41;;;13.76;82.19
12172;BME280;6149;52.418;13.668;2022-07-10T03:47:45;101469.81;;;13.74;82.10
12172;BME280;6149;52.418;13.668;2022-07-10T03:50:12;101470.94;;;13.70;83.00
12172;BME280;6149;52.418;13.668;2022-07-10T03:52:38;101478.66;;;13.75;82.39
12172;BME280;6149;52.418;13.668;2022-07-10T03:55:06;101480.28;;;13.77;82.75
12172;BME280;6149;52.418;13.668;2022-07-10T03:57:34;101484.59;;;13.80;82.16
12172;BME280;6149;52.418;13.668;2022-07-10T04:00:18;101474.31;;;13.74;82.71
12172;BME280;6149;52.418;13.668;2022-07-10T04:02:46;101481.16;;;13.78;83.32
12172;BME280;6149;52.418;13.668;2022-07-10T04:05:13;101479.44;;;13.77;83.01
12172;BME280;6149;52.418;13.668;2022-07-10T04:07:39;101481.00;;;13.81;83.35
12172;BME280;6149;52.418;13.668;2022-07-10T04:10:07;101477.78;;;13.74;83.17
12172;BME280;6149;52.418;13.668;2022-07-10T04:12:36;101472.41;;;13.76;83.27
12172;BME280;6149;52.418;13.668;2022-07-10T04:15:03;101482.09;;;13.77;83.13
12172;BME280;6149;52.418;13.668;2022-07-10T04:17:30;101482.03;;;13.78;83.56
12172;BME280;6149;52.418;13.668;2022-07-10T04:20:00;101482.88;;;13.79;83.23
12172;BME280;6149;52.418;13.668;2022-07-10T04:22:28;101477.41;;;13.82;83.81
12172;BME280;6149;52.418;13.668;2022-07-10T04:24:55;101480.06;;;13.82;83.28
12172;BME280;6149;52.418;13.668;2022-07-10T04:27:22;101475.84;;;13.78;83.90
12172;BME280;6149;52.418;13.668;2022-07-10T04:29:51;101469.03;;;13.89;83.27
12172;BME280;6149;52.418;13.668;2022-07-10T04:32:20;101477.69;;;13.93;83.73
12172;BME280;6149;52.418;13.668;2022-07-10T04:34:47;101469.88;;;13.90;83.20
12172;BME280;6149;52.418;13.668;2022-07-10T04:37:14;101482.41;;;13.88;84.19
12172;BME280;6149;52.418;13.668;2022-07-10T04:39:41;101475.91;;;13.93;83.98
12172;BME280;6149;52.418;13.668;2022-07-10T04:42:08;101472.22;;;13.96;83.86
12172;BME280;6149;52.418;13.668;2022-07-10T04:44:35;101471.44;;;13.94;84.11
12172;BME280;6149;52.418;13.668;2022-07-10T04:47:04;101466.66;;;14.00;84.33
12172;BME280;6149;52.418;13.668;2022-07-10T04:49:32;101464.09;;;13.99;83.95
12172;BME280;6149;52.418;13.668;2022-07-10T04:51:59;101466.66;;;14.00;83.25
12172;BME280;6149;52.418;13.668;2022-07-10T04:54:29;101464.09;;;13.99;83.65
12172;BME280;6149;52.418;13.668;2022-07-10T04:56:55;101465.97;;;13.97;84.37
12172;BME280;6149;52.418;13.668;2022-07-10T04:59:22;101462.53;;;13.95;83.84
12172;BME280;6149;52.418;13.668;2022-07-10T05:01:49;101460.72;;;13.95;84.21
12172;BME280;6149;52.418;13.668;2022-07-10T05:04:16;101469.78;;;14.09;83.65
12172;BME280;6149;52.418;13.668;2022-07-10T05:06:43;101469.31;;;14.00;83.88
12172;BME280;6149;52.418;13.668;2022-07-10T05:09:09;101467.03;;;14.10;83.24
12172;BME280;6149;52.418;13.668;2022-07-10T05:11:36;101476.81;;;14.10;84.07
12172;BME280;6149;52.418;13.668;2022-07-10T05:14:03;101473.47;;;14.06;84.36
12172;BME280;6149;52.418;13.668;2022-07-10T05:16:29;101474.91;;;14.12;83.31
12172;BME280;6149;52.418;13.668;2022-07-10T05:18:56;101471.50;;;14.10;83.52
12172;BME280;6149;52.418;13.668;2022-07-10T05:21:24;101474.56;;;14.18;83.26
12172;BME280;6149;52.418;13.668;2022-07-10T05:23:51;101468.41;;;14.17;82.91
12172;BME280;6149;52.418;13.668;2022-07-10T05:26:18;101459.41;;;14.20;83.85
12172;BME280;6149;52.418;13.668;2022-07-10T05:28:45;101469.63;;;14.27;83.31
12172;BME280;6149;52.418;13.668;2022-07-10T05:31:11;101473.66;;;14.34;82.71
12172;BME280;6149;52.418;13.668;2022-07-10T05:33:38;101473.50;;;14.37;82.82
12172;BME280;6149;52.418;13.668;2022-07-10T05:36:06;101474.91;;;14.45;81.80
12172;BME280;6149;52.418;13.668;2022-07-10T05:38:34;101479.38;;;14.44;81.27
12172;BME280;6149;52.418;13.668;2022-07-10T05:41:01;101471.97;;;14.49;81.35
12172;BME280;6149;52.418;13.668;2022-07-10T05:43:28;101474.06;;;14.44;81.69
12172;BME280;6149;52.418;13.668;2022-07-10T05:45:55;101478.75;;;14.39;82.60
12172;BME280;6149;52.418;13.668;2022-07-10T05:48:22;101477.75;;;14.42;82.82
12172;BME280;6149;52.418;13.668;2022-07-10T05:50:48;101480.16;;;14.46;83.52
12172;BME280;6149;52.418;13.668;2022-07-10T05:53:15;101471.63;;;14.55;82.43
12172;BME280;6149;52.418;13.668;2022-07-10T05:55:46;101470.53;;;14.59;81.79
12172;BME280;6149;52.418;13.668;2022-07-10T05:58:12;101478.88;;;14.69;81.26
12172;BME280;6149;52.418;13.668;2022-07-10T06:00:40;101479.97;;;14.81;81.37
12172;BME280;6149;52.418;13.668;2022-07-10T06:03:08;101482.13;;;14.74;81.79
12172;BME280;6149;52.418;13.668;2022-07-10T06:05:34;101477.59;;;14.76;80.67
12172;BME280;6149;52.418;13.668;2022-07-10T06:08:02;101473.13;;;14.77;79.84
12172;BME280;6149;52.418;13.668;2022-07-10T06:10:28;101476.38;;;14.82;80.28
12172;BME280;6149;52.418;13.668;2022-07-10T06:12:56;101473.00;;;14.94;79.59
12172;BME280;6149;52.418;13.668;2022-07-10T06:15:23;101480.91;;;14.95;79.23
12172;BME280;6149;52.418;13.668;2022-07-10T06:17:49;101485.09;;;14.99;78.18
12172;BME280;6149;52.418;13.668;2022-07-10T06:20:16;101485.97;;;15.00;78.68
12172;BME280;6149;52.418;13.668;2022-07-10T06:22:43;101477.72;;;14.89;79.73
12172;BME280;6149;52.418;13.668;2022-07-10T06:25:10;101477.81;;;14.87;79.52
12172;BME280;6149;52.418;13.668;2022-07-10T06:27:37;101486.31;;;14.94;78.78
12172;BME280;6149;52.418;13.668;2022-07-10T06:30:06;101475.31;;;15.00;78.51
12172;BME280;6149;52.418;13.668;2022-07-10T06:32:34;101483.72;;;15.08;79.05
12172;BME280;6149;52.418;13.668;2022-07-10T06:35:01;101474.97;;;15.06;79.09
12172;BME280;6149;52.418;13.668;2022-07-10T06:37:29;101479.25;;;15.09;79.62
12172;BME280;6149;52.418;13.668;2022-07-10T06:39:56;101476.50;;;15.10;79.51
12172;BME280;6149;52.418;13.668;2022-07-10T06:42:23;101475.47;;;15.13;78.49
12172;BME280;6149;52.418;13.668;2022-07-10T06:44:50;101472.72;;;15.14;78.63
12172;BME280;6149;52.418;13.668;2022-07-10T06:47:19;101476.50;;;15.10;78.38
12172;BME280;6149;52.418;13.668;2022-07-10T06:50:04;101485.00;;;15.17;77.80
12172;BME280;6149;52.418;13.668;2022-07-10T06:52:32;101481.75;;;15.12;77.08
12172;BME280;6149;52.418;13.668;2022-07-10T06:54:59;101476.69;;;15.07;78.21
12172;BME280;6149;52.418;13.668;2022-07-10T06:57:26;101479.25;;;15.09;79.08
12172;BME280;6149;52.418;13.668;2022-07-10T06:59:53;101485.78;;;15.19;78.00
12172;BME280;6149;52.418;13.668;2022-07-10T07:02:21;101484.25;;;15.29;76.75
12172;BME280;6149;52.418;13.668;2022-07-10T07:04:48;101478.63;;;15.49;76.24
12172;BME280;6149;52.418;13.668;2022-07-10T07:07:15;101474.06;;;15.51;75.17
12172;BME280;6149;52.418;13.668;2022-07-10T07:09:42;101478.13;;;15.58;76.61
12172;BME280;6149;52.418;13.668;2022-07-10T07:12:10;101483.56;;;15.71;75.25
12172;BME280;6149;52.418;13.668;2022-07-10T07:14:36;101465.09;;;15.82;75.62
12172;BME280;6149;52.418;13.668;2022-07-10T07:17:04;101473.00;;;15.84;74.36
12172;BME280;6149;52.418;13.668;2022-07-10T07:19:35;101480.06;;;15.85;74.20
12172;BME280;6149;52.418;13.668;2022-07-10T07:22:19;101473.13;;;15.96;74.39
12172;BME280;6149;52.418;13.668;2022-07-10T07:25:04;101482.81;;;15.97;73.30
12172;BME280;6149;52.418;13.668;2022-07-10T07:27:32;101479.09;;;16.00;73.22
12172;BME280;6149;52.418;13.668;2022-07-10T07:30:02;101476.59;;;16.39;72.06
12172;BME280;6149;52.418;13.668;2022-07-10T07:32:29;101483.19;;;16.48;70.96
12172;BME280;6149;52.418;13.668;2022-07-10T07:34:58;101480.69;;;16.45;71.03
12172;BME280;6149;52.418;13.668;2022-07-10T07:37:34;101481.16;;;16.52;69.52
12172;BME280;6149;52.418;13.668;2022-07-10T07:40:03;101491.38;;;16.59;68.77
12172;BME280;6149;52.418;13.668;2022-07-10T07:42:30;101484.50;;;16.55;67.72
12172;BME280;6149;52.418;13.668;2022-07-10T07:44:57;101483.94;;;16.64;68.33
12172;BME280;6149;52.418;13.668;2022-07-10T07:47:24;101481.94;;;16.68;67.94
12172;BME280;6149;52.418;13.668;2022-07-10T07:49:51;101478.75;;;16.76;67.63
12172;BME280;6149;52.418;13.668;2022-07-10T07:52:19;101473.88;;;16.82;69.14
12172;BME280;6149;52.418;13.668;2022-07-10T07:54:46;101469.69;;;16.78;69.60
12172;BME280;6149;52.418;13.668;2022-07-10T07:57:13;101472.88;;;16.70;67.36
12172;BME280;6149;52.418;13.668;2022-07-10T07:59:39;101481.72;;;16.57;67.13
12172;BME280;6149;52.418;13.668;2022-07-10T08:02:06;101476.41;;;16.57;68.55
12172;BME280;6149;52.418;13.668;2022-07-10T08:04:33;101476.03;;;16.49;69.00
12172;BME280;6149;52.418;13.668;2022-07-10T08:06:59;101471.44;;;16.51;69.00
12172;BME280;6149;52.418;13.668;2022-07-10T08:09:28;101471.06;;;16.57;69.83
12172;BME280;6149;52.418;13.668;2022-07-10T08:11:55;101476.31;;;16.58;64.58
12172;BME280;6149;52.418;13.668;2022-07-10T08:14:21;101471.25;;;16.68;65.46
12172;BME280;6149;52.418;13.668;2022-07-10T08:16:48;101464.16;;;16.81;63.62
12172;BME280;6149;52.418;13.668;2022-07-10T08:19:16;101472.03;;;16.97;64.54
12172;BME280;6149;52.418;13.668;2022-07-10T08:21:42;101457.41;;;17.15;64.28
12172;BME280;6149;52.418;13.668;2022-07-10T08:24:09;101463.88;;;17.25;63.10
12172;BME280;6149;52.418;13.668;2022-07-10T08:26:37;101455.03;;;17.37;64.03
12172;BME280;6149;52.418;13.668;2022-07-10T08:29:03;101462.09;;;17.51;62.24
12172;BME280;6149;52.418;13.668;2022-07-10T08:31:30;101456.38;;;17.70;60.38
12172;BME280;6149;52.418;13.668;2022-07-10T08:33:58;101461.97;;;17.80;60.88
12172;BME280;6149;52.418;13.668;2022-07-10T08:36:25;101454.22;;;17.88;59.46
12172;BME280;6149;52.418;13.668;2022-07-10T08:38:51;101457.53;;;17.91;58.51
12172;BME280;6149;52.418;13.668;2022-07-10T08:41:22;101461.28;;;18.01;60.77
12172;BME280;6149;52.418;13.668;2022-07-10T08:43:53;101460.34;;;18.02;59.33
12172;BME280;6149;52.418;13.668;2022-07-10T08:46:20;101454.88;;;18.53;58.59
12172;BME280;6149;52.418;13.668;2022-07-10T08:48:48;101454.97;;;19.12;54.35
12172;BME280;6149;52.418;13.668;2022-07-10T08:51:22;101452.88;;;19.40;53.74
12172;BME280;6149;52.418;13.668;2022-07-10T08:53:51;101460.78;;;19.30;53.23
12172;BME280;6149;52.418;13.668;2022-07-10T08:56:18;101460.22;;;19.14;52.76
12172;BME280;6149;52.418;13.668;2022-07-10T08:58:44;101463.75;;;19.14;55.55
12172;BME280;6149;52.418;13.668;2022-07-10T09:01:13;101469.75;;;18.94;53.92
12172;BME280;6149;52.418;13.668;2022-07-10T09:03:39;101469.19;;;19.01;52.52
12172;BME280;6149;52.418;13.668;2022-07-10T09:06:06;101466.25;;;18.93;52.97
12172;BME280;6149;52.418;13.668;2022-07-10T09:08:33;101470.06;;;18.65;53.35
12172;BME280;6149;52.418;13.668;2022-07-10T09:11:13;101478.56;;;18.47;54.12
12172;BME280;6149;52.418;13.668;2022-07-10T09:13:49;101467.56;;;18.26;55.08
12172;BME280;6149;52.418;13.668;2022-07-10T09:16:22;101476.50;;;18.14;55.92
12172;BME280;6149;52.418;13.668;2022-07-10T09:18:49;101477.66;;;17.97;56.21
12172;BME280;6149;52.418;13.668;2022-07-10T09:21:16;101478.00;;;17.80;58.37
12172;BME280;6149;52.418;13.668;2022-07-10T09:23:43;101480.56;;;17.68;58.08
12172;BME280;6149;52.418;13.668;2022-07-10T09:26:10;101480.56;;;17.68;58.94
12172;BME280;6149;52.418;13.668;2022-07-10T09:28:37;101487.84;;;17.79;58.00
12172;BME280;6149;52.418;13.668;2022-07-10T09:31:04;101485.19;;;17.79;57.55
12172;BME280;6149;52.418;13.668;2022-07-10T09:33:32;101489.47;;;17.82;58.50
12172;BME280;6149;52.418;13.668;2022-07-10T09:36:04;101482.06;;;17.85;57.96
12172;BME280;6149;52.418;13.668;2022-07-10T09:38:54;101481.84;;;17.88;57.43
12172;BME280;6149;52.418;13.668;2022-07-10T09:41:24;101496.63;;;17.94;58.43
12172;BME280;6149;52.418;13.668;2022-07-10T09:43:53;101494.59;;;17.72;57.38
12172;BME280;6149;52.418;13.668;2022-07-10T09:46:22;101496.72;;;17.67;58.06
12172;BME280;6149;52.418;13.668;2022-07-10T09:49:02;101491.06;;;17.72;58.75
12172;BME280;6149;52.418;13.668;2022-07-10T09:51:32;101489.47;;;17.82;56.62
12172;BME280;6149;52.418;13.668;2022-07-10T09:54:04;101486.34;;;17.88;55.87
12172;BME280;6149;52.418;13.668;2022-07-10T09:56:36;101480.25;;;17.98;54.90
12172;BME280;6149;52.418;13.668;2022-07-10T09:59:08;101478.97;;;18.17;55.99
12172;BME280;6149;52.418;13.668;2022-07-10T10:01:36;101471.94;;;18.40;55.18
12172;BME280;6149;52.418;13.668;2022-07-10T10:04:06;101475.38;;;18.42;55.59
12172;BME280;6149;52.418;13.668;2022-07-10T10:06:36;101478.44;;;18.61;54.76
12172;BME280;6149;52.418;13.668;2022-07-10T10:09:04;101471.75;;;19.03;55.76
12172;BME280;6149;52.418;13.668;2022-07-10T10:11:36;101479.75;;;19.16;53.15
12172;BME280;6149;52.418;13.668;2022-07-10T10:14:07;101478.56;;;19.31;54.12
12172;BME280;6149;52.418;13.668;2022-07-10T10:16:34;101476.03;;;19.29;51.99
12172;BME280;6149;52.418;13.668;2022-07-10T10:19:02;101468.44;;;19.23;53.63
12172;BME280;6149;52.418;13.668;2022-07-10T10:21:48;101480.41;;;19.30;53.50
12172;BME280;6149;52.418;13.668;2022-07-10T10:24:16;101476.63;;;19.33;53.29
12172;BME280;6149;52.418;13.668;2022-07-10T10:26:43;101464.69;;;19.37;53.31
12172;BME280;6149;52.418;13.668;2022-07-10T10:29:11;101478.09;;;19.61;50.86
12172;BME280;6149;52.418;13.668;2022-07-10T10:31:38;101471.72;;;19.51;52.06
12172;BME280;6149;52.418;13.668;2022-07-10T10:34:06;101473.13;;;19.67;53.35
12172;BME280;6149;52.418;13.668;2022-07-10T10:36:47;101467.00;;;19.77;54.90
12172;BME280;6149;52.418;13.668;2022-07-10T10:39:18;101470.59;;;19.88;53.85
12172;BME280;6149;52.418;13.668;2022-07-10T10:41:50;101474.38;;;20.08;52.02
12172;BME280;6149;52.418;13.668;2022-07-10T10:44:24;101469.38;;;19.92;49.97
12172;BME280;6149;52.418;13.668;2022-07-10T10:47:05;101488.59;;;19.64;50.37
12172;BME280;6149;52.418;13.668;2022-07-10T10:49:48;101484.78;;;19.31;51.06
12172;BME280;6149;52.418;13.668;2022-07-10T10:52:17;101490.88;;;19.22;52.81
12172;BME280;6149;52.418;13.668;2022-07-10T10:55:06;101488.75;;;19.15;52.63
12172;BME280;6149;52.418;13.668;2022-07-10T10:57:41;101488.47;;;19.07;52.30
12172;BME280;6149;52.418;13.668;2022-07-10T11:00:15;101486.34;;;19.23;52.61
12172;BME280;6149;52.418;13.668;2022-07-10T11:03:19;101484.06;;;19.29;52.60
12172;BME280;6149;52.418;13.668;2022-07-10T11:05:48;101493.69;;;19.32;51.71
12172;BME280;6149;52.418;13.668;2022-07-10T11:08:38;101484.78;;;19.31;52.23
12172;BME280;6149;52.418;13.668;2022-07-10T11:11:37;101488.94;;;19.35;52.79
12172;BME280;6149;52.418;13.668;2022-07-10T11:14:06;101485.28;;;19.36;52.33
12172;BME280;6149;52.418;13.668;2022-07-10T11:16:34;101486.16;;;19.37;52.35
12172;BME280;6149;52.418;13.668;2022-07-10T11:19:01;101479.19;;;19.58;52.48
12172;BME280;6149;52.418;13.668;2022-07-10T11:21:37;101485.31;;;19.72;52.00
12172;BME280;6149;52.418;13.668;2022-07-10T11:24:28;101484.84;;;19.78;50.00
12172;BME280;6149;52.418;13.668;2022-07-10T11:27:12;101485.09;;;19.86;51.78
12172;BME280;6149;52.418;13.668;2022-07-10T11:29:45;101491.34;;;19.97;48.36
12172;BME280;6149;52.418;13.668;2022-07-10T11:32:15;101485.84;;;20.10;46.64
12172;BME280;6149;52.418;13.668;2022-07-10T11:34:42;101485.75;;;20.00;48.21
12172;BME280;6149;52.418;13.668;2022-07-10T11:37:14;101490.34;;;20.10;47.39
12172;BME280;6149;52.418;13.668;2022-07-10T11:39:42;101496.38;;;20.02;49.64
12172;BME280;6149;52.418;13.668;2022-07-10T11:42:10;101492.44;;;19.95;48.05
12172;BME280;6149;52.418;13.668;2022-07-10T11:44:37;101483.34;;;19.74;48.56
12172;BME280;6149;52.418;13.668;2022-07-10T11:47:04;101483.84;;;19.79;49.17
12172;BME280;6149;52.418;13.668;2022-07-10T11:49:32;101483.84;;;19.79;49.49
12172;BME280;6149;52.418;13.668;2022-07-10T11:52:01;101488.97;;;19.70;48.25
12172;BME280;6149;52.418;13.668;2022-07-10T11:54:28;101496.06;;;19.83;51.11
12172;BME280;6149;52.418;13.668;2022-07-10T11:57:04;101489.25;;;19.90;49.14
12172;BME280;6149;52.418;13.668;2022-07-10T11:59:32;101492.19;;;20.09;49.32
12172;BME280;6149;52.418;13.668;2022-07-10T12:01:58;101489.50;;;20.09;50.06
12172;BME280;6149;52.418;13.668;2022-07-10T12:04:29;101498.66;;;20.18;46.83
12172;BME280;6149;52.418;13.668;2022-07-10T12:06:56;101490.84;;;20.15;48.05
12172;BME280;6149;52.418;13.668;2022-07-10T12:09:23;101497.94;;;20.16;49.68
12172;BME280;6149;52.418;13.668;2022-07-10T12:12:01;101485.97;;;20.20;48.16
12172;BME280;6149;52.418;13.668;2022-07-10T12:14:29;101490.72;;;19.94;47.87
12172;BME280;6149;52.418;13.668;2022-07-10T12:16:57;101486.09;;;19.96;49.56
12172;BME280;6149;52.418;13.668;2022-07-10T12:19:25;101490.25;;;20.11;50.99
12172;BME280;6149;52.418;13.668;2022-07-10T12:21:55;101494.41;;;20.15;48.89
12172;BME280;6149;52.418;13.668;2022-07-10T12:24:22;101505.88;;;20.17;49.71
12172;BME280;6149;52.418;13.668;2022-07-10T12:26:50;101492.59;;;20.05;47.45
12172;BME280;6149;52.418;13.668;2022-07-10T12:29:23;101488.41;;;20.12;48.98
12172;BME280;6149;52.418;13.668;2022-07-10T12:31:52;101489.63;;;20.19;48.04
12172;BME280;6149;52.418;13.668;2022-07-10T12:34:20;101492.59;;;20.05;48.97
12172;BME280;6149;52.418;13.668;2022-07-10T12:37:06;101494.66;;;20.01;49.86
12172;BME280;6149;52.418;13.668;2022-07-10T12:39:35;101494.81;;;19.76;49.49
12172;BME280;6149;52.418;13.668;2022-07-10T12:42:04;101500.19;;;19.64;49.50
12172;BME280;6149;52.418;13.668;2022-07-10T12:44:39;101500.91;;;19.55;49.82
12172;BME280;6149;52.418;13.668;2022-07-10T12:47:08;101499.56;;;19.61;50.26
12172;BME280;6149;52.418;13.668;2022-07-10T12:50:05;101503.50;;;19.44;50.75
12172;BME280;6149;52.418;13.668;2022-07-10T12:52:34;101504.53;;;19.54;50.39
12172;BME280;6149;52.418;13.668;2022-07-10T12:55:12;101503.03;;;19.50;47.35
12172;BME280;6149;52.418;13.668;2022-07-10T12:57:50;101500.44;;;19.61;49.38
12172;BME280;6149;52.418;13.668;2022-07-10T13:00:20;101501.50;;;19.59;48.86